KEZM

Heart of Georgia Regional Airport

Eastman, Georgia, USA
METAR KEZM 212115Z AUTO 04004G08KT 10SM CLR 19/M01 A3019 RMK AO2 T01881009
Observed Flight Rules
Oct-21 @ 21:15 UTC (30 minutes ago) Visual Flight Rules
Wind Visibility Clouds
40° at 4 knots
 Gusting to 8 knots
10 miles
  • Clear skies
Temperatures Readings
Current 19°C / 66°F
Dewpoint -1°C / 30°F
Humidity 26%
Altimeter 30.19" Hg
Pressure 1022 hPa
Elevation 93
METAR KEZM 212115Z AUTO 04004G08KT 10SM CLR 19/M01 A3019 RMK AO2 T01881009
Observed Flight Rules
Oct-21 @ 21:15 UTC
(30 minutes ago)
VFR
Wind Visibility
40° at 4 knots
 Gusting to 8 knots
10 miles
Clouds
  • Clear skies
Temperature Dewpoint
19°C / 66°F -1°C / 30°F
Humidity Altimeter Pressure
26% 30.19" Hg 1022 hPa